LFST 181530Z AUTO 35004KT 300V030 9999 BKN034 BKN100 25/17 Q1012 TEMPO 4000 SHRA FEW030CB BKN040

ElémentsDécodage
LFST Station météo située sur l'aérodrome de STRASBOURG Entzheim
181530Z émis le 18 du mois à 15h30 UTC
AUTO Bulletin édité par un automate
35004KT vent du 350°, 04 noeuds
300V030 vent de direction variable entre 300° et 030°
9999 visibilité horizontale supérieure à 10 Km
BKN034 nuages morcelés (5/8 à 7/8) à 3400 pieds
BKN100 nuages morcelés (5/8 à 7/8) à 10000 pieds
25/17 température 25°C, point de rosée 17°C
 soit une humidité relative de 61%
Q1012 la pression au niveau de la mer (QNH) est de 1012 hPa
TEMPO fluctuation temporaire prévue
4000 visibilité horizontale de 4000 mètres
SHRA averse(s) de pluie
FEW030CB nuages rares (1/8 à 2/8) à 3000 pieds
 présence de cumulonimbus
BKN040 nuages morcelés (5/8 à 7/8) à 4000 pieds